Capitol Logistics 7356

Operating for MZN



KABE
Lehigh Valley International Airport
Allentown, Pennsylvania
KSMF
Sacramento International Airport
Sacramento, California

Activity Log

Date Flight Route Aircraft Duration
No Flights Yet

Route Details

Aircraft Information
Primary: Boeing 767-300BDSF
Backup: Airbus A300-600F
Route Data
Distance: 2114nm
Duration: 5h 44m
Recm'd Route: ETX V30 PSB J60 JOT J60 DBL DTA J84 MVA CRASY SLMMR4
Origin Wx: KABE 020351Z 30007KT 10SM SCT110 16/14 A2988 RMK AO2 SLP119 T01560144 $
Dest. Wx: KSMF 020353Z 18011KT 10SM FEW250 24/12 A2994 RMK AO2 SLP139 T02390122
Notes: